La Conner, Washington
Current Conditions -  °F | °C
As of 9:56 PM on Friday 31 Oct 2014 (Local Time) from KNUW Reporting Station
Light Fog Light Fog  
Wind Chill: 42°   Ceiling: Unl
Heat Index: 45°   Visibility: 8mi
Dew Point: 42°   Wind: 6mph
Humidity: 90%   Direction: 110°ESE
Pressure: 29.88"   Gusts: NA
Location:  48.39°N, 122.5°W
Report Text: KNUW 010456Z 11005KT 8SM MIFG FEW060 SCT250 07/06 A2988 RMK AO2 SLP123 T00720056 $
Loading
Personal Weather Stations






























Interactive Weather Map
Tropical Storm Tracking
New forecast layout! Learn more

10-Day Weather Forecast

Advertisements
Track Severe Weather on mobile